createdAt,value
2023-01-31T00:02:47.309Z,1.86
2023-01-31T00:05:51.235Z,1.90
2023-01-31T00:08:54.776Z,1.84
2023-01-31T00:11:57.450Z,1.91
2023-01-31T00:15:00.500Z,2.02
2023-01-31T00:18:03.207Z,1.83
2023-01-31T00:21:13.383Z,1.94
2023-01-31T00:24:16.222Z,1.91
2023-01-31T00:27:19.568Z,1.98
2023-01-31T00:30:23.335Z,1.98
2023-01-31T00:33:25.957Z,1.91
2023-01-31T00:36:31.931Z,1.83
2023-01-31T00:39:34.694Z,1.90
2023-01-31T00:42:38.817Z,1.86
2023-01-31T00:45:41.647Z,1.83
2023-01-31T00:48:44.656Z,1.89
2023-01-31T00:51:47.592Z,1.94
2023-01-31T00:54:50.088Z,2.02
2023-01-31T00:57:54.315Z,2.01
2023-01-31T01:00:57.159Z,2.06
2023-01-31T01:03:59.980Z,2.06
2023-01-31T01:07:02.521Z,2.04
2023-01-31T01:10:05.968Z,2.14
2023-01-31T01:13:08.568Z,1.99
2023-01-31T01:16:23.169Z,2.06
2023-01-31T01:19:26.890Z,2.02
2023-01-31T01:22:31.142Z,1.93
2023-01-31T01:25:43.007Z,1.96
2023-01-31T01:28:46.681Z,2.01
2023-01-31T01:31:49.368Z,2.10
2023-01-31T01:34:53.030Z,2.17
2023-01-31T01:37:55.625Z,2.21
2023-01-31T01:40:58.728Z,2.19
2023-01-31T01:44:03.418Z,2.22
2023-01-31T01:47:15.369Z,2.11
2023-01-31T01:50:21.233Z,2.26
2023-01-31T01:53:27.656Z,2.14
2023-01-31T01:56:36.782Z,1.99
2023-01-31T01:59:44.947Z,2.20
2023-01-31T02:02:49.387Z,1.99
2023-01-31T02:05:55.474Z,2.08
2023-01-31T02:08:58.496Z,2.14
2023-01-31T02:12:01.180Z,2.14
2023-01-31T02:15:04.211Z,2.28
2023-01-31T02:18:07.871Z,2.26
2023-01-31T02:21:22.677Z,2.30
2023-01-31T02:24:57.495Z,2.24
2023-01-31T02:28:03.573Z,2.27
2023-01-31T02:31:44.209Z,2.17
2023-01-31T02:35:25.740Z,2.19
2023-01-31T02:38:42.827Z,2.14
2023-01-31T02:42:07.501Z,2.11
2023-01-31T02:45:34.556Z,1.96
2023-01-31T02:48:49.099Z,2.06
2023-01-31T02:52:15.402Z,1.98
2023-01-31T02:55:47.277Z,2.08
2023-01-31T02:59:07.982Z,2.13
2023-01-31T03:02:13.870Z,2.02
2023-01-31T03:05:20.100Z,2.02
2023-01-31T03:08:23.287Z,2.09
2023-01-31T03:11:32.757Z,2.03
2023-01-31T03:14:43.277Z,1.99
2023-01-31T03:17:48.063Z,2.05
2023-01-31T03:20:57.159Z,1.77
2023-01-31T03:24:02.571Z,1.64
2023-01-31T03:27:06.140Z,1.52
2023-01-31T03:30:18.804Z,1.62
2023-01-31T03:33:27.626Z,1.46
2023-01-31T03:36:45.943Z,1.38
2023-01-31T03:40:25.474Z,1.39
2023-01-31T03:43:41.792Z,1.44
2023-01-31T03:46:46.957Z,1.29
2023-01-31T03:49:52.067Z,1.38
2023-01-31T03:53:01.410Z,1.37
2023-01-31T03:56:21.132Z,1.21
2023-01-31T03:59:28.732Z,1.36
2023-01-31T04:02:35.878Z,1.13
2023-01-31T04:05:38.595Z,1.13
2023-01-31T04:08:42.125Z,1.13
2023-01-31T04:11:48.910Z,1.24
2023-01-31T04:14:51.481Z,1.14
2023-01-31T04:17:54.267Z,1.16
2023-01-31T04:20:56.832Z,1.10
2023-01-31T04:23:59.932Z,1.17
2023-01-31T04:27:02.483Z,1.25
2023-01-31T04:30:06.711Z,1.17
2023-01-31T04:33:10.611Z,1.16
2023-01-31T04:36:13.197Z,1.06
2023-01-31T04:39:16.538Z,1.23
2023-01-31T04:42:19.155Z,1.16
2023-01-31T04:45:22.255Z,1.20
2023-01-31T04:48:24.925Z,1.17
2023-01-31T04:51:27.775Z,1.31
2023-01-31T04:54:30.437Z,1.35
2023-01-31T04:57:32.998Z,1.32
2023-01-31T05:00:36.767Z,1.27
2023-01-31T05:03:39.548Z,1.27
2023-01-31T05:06:42.039Z,1.26
2023-01-31T05:09:45.928Z,1.37
2023-01-31T05:12:48.652Z,1.24
2023-01-31T05:15:52.590Z,1.29
2023-01-31T05:18:55.229Z,1.26
2023-01-31T05:22:01.132Z,1.26
2023-01-31T05:25:05.151Z,1.28
2023-01-31T05:28:08.291Z,1.26
2023-01-31T05:31:13.619Z,1.23
2023-01-31T05:34:18.439Z,1.17
2023-01-31T05:37:21.411Z,1.22
2023-01-31T05:40:26.135Z,1.24
2023-01-31T05:43:29.249Z,1.11
2023-01-31T05:46:33.585Z,1.15
2023-01-31T05:49:36.837Z,1.10
2023-01-31T05:52:39.935Z,1.13
2023-01-31T05:55:43.603Z,1.10
2023-01-31T05:58:51.423Z,1.10
2023-01-31T06:01:56.549Z,1.06
2023-01-31T06:04:59.389Z,1.07
2023-01-31T06:08:04.218Z,1.12
2023-01-31T06:11:07.027Z,1.12
2023-01-31T06:14:11.749Z,1.10
2023-01-31T06:17:14.528Z,1.03
2023-01-31T06:20:19.405Z,1.05
2023-01-31T06:23:26.516Z,1.02
2023-01-31T06:26:29.936Z,0.92
2023-01-31T06:29:32.949Z,1.03
2023-01-31T06:32:36.176Z,0.99
2023-01-31T06:35:39.659Z,0.99
2023-01-31T06:38:42.921Z,1.02
2023-01-31T06:41:45.647Z,0.98
2023-01-31T06:44:48.427Z,1.10
2023-01-31T06:47:51.152Z,1.06
2023-01-31T06:50:56.804Z,1.17
2023-01-31T06:53:59.608Z,1.22
2023-01-31T06:57:02.472Z,1.58
2023-01-31T07:00:06.553Z,1.51
2023-01-31T07:03:09.846Z,1.46
2023-01-31T07:06:14.235Z,1.36
2023-01-31T07:09:17.498Z,1.29
2023-01-31T07:12:21.075Z,1.23
2023-01-31T07:15:24.609Z,1.26
2023-01-31T07:18:27.472Z,1.22
2023-01-31T07:21:31.188Z,1.22
2023-01-31T07:24:35.997Z,1.19
2023-01-31T07:27:39.087Z,1.28
2023-01-31T07:30:44.143Z,1.11
2023-01-31T07:33:47.299Z,1.07
2023-01-31T07:36:50.959Z,1.17
2023-01-31T07:39:53.514Z,1.32
2023-01-31T07:42:59.909Z,1.19
2023-01-31T07:46:03.034Z,1.17
2023-01-31T07:49:07.303Z,1.36
2023-01-31T07:52:10.241Z,1.46
2023-01-31T07:55:14.424Z,1.55
2023-01-31T07:58:17.440Z,1.83
2023-01-31T08:01:43.487Z,2.00
2023-01-31T08:04:47.776Z,1.95
2023-01-31T08:08:11.908Z,2.11
2023-01-31T08:11:14.740Z,1.86
2023-01-31T08:14:17.944Z,1.83
2023-01-31T08:17:20.928Z,1.92
2023-01-31T08:20:23.941Z,2.17
2023-01-31T08:23:28.456Z,2.34
2023-01-31T08:26:31.714Z,2.46
2023-01-31T08:29:34.685Z,2.24
2023-01-31T08:32:37.369Z,2.18
2023-01-31T08:35:41.579Z,2.37
2023-01-31T08:38:45.071Z,2.44
2023-01-31T08:41:48.505Z,2.61
2023-01-31T08:44:51.318Z,2.49
2023-01-31T08:47:56.909Z,2.29
2023-01-31T08:51:05.014Z,2.21
2023-01-31T08:54:10.058Z,2.35
2023-01-31T08:57:14.201Z,2.67
2023-01-31T09:00:17.818Z,2.45
2023-01-31T09:03:21.590Z,2.40
2023-01-31T09:06:27.249Z,2.34
2023-01-31T09:09:30.660Z,2.50
2023-01-31T09:12:34.534Z,2.76
2023-01-31T09:15:39.012Z,2.60
2023-01-31T09:18:41.918Z,2.72
2023-01-31T09:21:44.653Z,2.60
2023-01-31T09:24:47.529Z,2.87
2023-01-31T09:27:52.857Z,2.61
2023-01-31T09:30:56.077Z,2.59
2023-01-31T09:33:59.666Z,2.61
2023-01-31T09:37:02.590Z,2.56
2023-01-31T09:40:07.531Z,2.70
2023-01-31T09:43:12.302Z,2.77
2023-01-31T09:46:18.582Z,2.85
2023-01-31T09:49:28.459Z,2.95
2023-01-31T09:52:33.637Z,3.09
2023-01-31T09:55:38.458Z,3.31
2023-01-31T09:58:54.061Z,3.00
2023-01-31T10:02:06.760Z,3.04
2023-01-31T10:05:36.213Z,3.16
2023-01-31T10:08:59.726Z,3.19
2023-01-31T10:12:29.256Z,3.09
2023-01-31T10:15:46.265Z,3.08
2023-01-31T10:19:10.956Z,3.13
2023-01-31T10:22:35.219Z,3.14
2023-01-31T10:25:52.224Z,3.21
2023-01-31T10:28:57.548Z,3.22
2023-01-31T10:32:32.003Z,3.26
2023-01-31T10:35:41.354Z,3.55
2023-01-31T10:39:08.908Z,3.02
2023-01-31T10:42:24.822Z,2.78
2023-01-31T10:45:34.433Z,2.79
2023-01-31T10:48:40.043Z,2.81
2023-01-31T10:51:59.978Z,2.75
2023-01-31T10:55:27.629Z,2.77
2023-01-31T10:58:31.422Z,2.60
2023-01-31T11:01:37.899Z,2.96
2023-01-31T11:04:45.231Z,3.05
2023-01-31T11:07:48.308Z,3.56
2023-01-31T11:10:55.333Z,3.53
2023-01-31T11:14:07.742Z,3.13
2023-01-31T11:17:19.316Z,3.31
2023-01-31T11:20:30.805Z,3.31
2023-01-31T11:23:35.246Z,3.66
2023-01-31T11:26:40.627Z,4.20
2023-01-31T11:29:51.280Z,3.76
2023-01-31T11:32:55.824Z,3.81
2023-01-31T11:35:58.724Z,3.72
2023-01-31T11:39:25.365Z,3.74
2023-01-31T11:42:28.474Z,3.36
2023-01-31T11:45:37.421Z,3.16
2023-01-31T11:48:42.919Z,2.83
2023-01-31T11:51:46.071Z,2.60
2023-01-31T11:55:06.369Z,2.74
2023-01-31T11:58:34.360Z,2.71
2023-01-31T12:01:46.857Z,2.69
2023-01-31T12:04:51.613Z,2.87
2023-01-31T12:07:56.825Z,3.14
2023-01-31T12:11:00.817Z,3.18
2023-01-31T12:14:07.100Z,3.22
2023-01-31T12:17:16.160Z,2.87
2023-01-31T12:20:29.293Z,3.11
2023-01-31T12:23:57.320Z,3.33
2023-01-31T12:27:07.628Z,3.00
2023-01-31T12:30:35.022Z,3.01
2023-01-31T12:33:53.426Z,3.12
2023-01-31T12:37:22.461Z,2.85
2023-01-31T12:40:44.634Z,2.74
2023-01-31T12:44:26.459Z,2.79
2023-01-31T12:47:57.617Z,2.71
2023-01-31T12:51:25.531Z,2.66
2023-01-31T12:54:47.204Z,2.67
2023-01-31T12:58:04.769Z,2.61
2023-01-31T13:01:15.480Z,2.54
2023-01-31T13:04:27.706Z,2.44
2023-01-31T13:07:46.359Z,2.51
2023-01-31T13:11:21.717Z,2.57
2023-01-31T13:14:27.067Z,2.54
2023-01-31T13:17:30.941Z,2.29
2023-01-31T13:20:41.808Z,2.23
2023-01-31T13:23:57.097Z,2.13
2023-01-31T13:27:08.268Z,2.11
2023-01-31T13:30:27.404Z,2.11
2023-01-31T13:33:45.320Z,2.22
2023-01-31T13:36:52.335Z,1.99
2023-01-31T13:40:00.096Z,2.03
2023-01-31T13:43:13.892Z,2.05
2023-01-31T13:46:25.011Z,2.02
2023-01-31T13:49:31.142Z,1.91
2023-01-31T13:52:53.625Z,1.87
2023-01-31T13:55:57.652Z,1.72
2023-01-31T13:59:02.778Z,1.68
2023-01-31T14:02:19.896Z,1.73
2023-01-31T14:05:41.513Z,1.74
2023-01-31T14:08:50.603Z,1.75
2023-01-31T14:11:59.438Z,1.74
2023-01-31T14:15:06.296Z,1.68
2023-01-31T14:18:10.408Z,1.80
2023-01-31T14:21:58.679Z,1.79
2023-01-31T14:25:10.700Z,1.90
2023-01-31T14:28:16.005Z,1.87
2023-01-31T14:31:20.100Z,1.85
2023-01-31T14:34:31.229Z,1.80
2023-01-31T14:37:43.268Z,1.83
2023-01-31T14:41:04.889Z,1.81
2023-01-31T14:44:32.334Z,1.94
2023-01-31T14:47:42.755Z,1.79
2023-01-31T14:51:11.868Z,1.95
2023-01-31T14:54:30.679Z,1.93
2023-01-31T14:57:41.422Z,1.90
2023-01-31T15:00:53.376Z,1.94
2023-01-31T15:04:02.175Z,1.93
2023-01-31T15:07:17.433Z,1.84
2023-01-31T15:10:55.628Z,1.99
2023-01-31T15:13:58.919Z,1.96
2023-01-31T15:17:14.887Z,1.96
2023-01-31T15:20:38.678Z,2.07
2023-01-31T15:23:45.915Z,2.07
2023-01-31T15:26:49.062Z,2.07
2023-01-31T15:29:56.048Z,2.10
2023-01-31T15:32:59.243Z,2.19
2023-01-31T15:36:07.224Z,2.18
2023-01-31T15:39:23.182Z,2.08
2023-01-31T15:42:33.832Z,2.12
2023-01-31T15:45:38.952Z,2.13
2023-01-31T15:48:44.309Z,2.15
2023-01-31T15:51:47.276Z,2.08
2023-01-31T15:55:00.260Z,2.11
2023-01-31T15:58:08.618Z,2.16
2023-01-31T16:01:16.875Z,2.13
2023-01-31T16:04:19.955Z,2.13
2023-01-31T16:07:28.659Z,2.13
2023-01-31T16:10:32.428Z,2.16
2023-01-31T16:13:40.622Z,2.11
2023-01-31T16:16:53.013Z,2.13
2023-01-31T16:19:57.853Z,2.13
2023-01-31T16:23:00.971Z,2.09
2023-01-31T16:27:00.632Z,2.11
2023-01-31T16:30:09.206Z,2.10
2023-01-31T16:33:22.134Z,2.06
2023-01-31T16:36:31.381Z,2.06
2023-01-31T16:39:51.111Z,2.13
2023-01-31T16:43:21.012Z,2.13
2023-01-31T16:46:39.075Z,2.07
2023-01-31T16:49:41.846Z,2.15
2023-01-31T16:52:48.439Z,2.11
2023-01-31T16:56:22.527Z,2.07
2023-01-31T16:59:34.819Z,2.04
2023-01-31T17:02:46.795Z,2.11
2023-01-31T17:05:52.718Z,2.11
2023-01-31T17:08:55.971Z,2.17
2023-01-31T17:12:01.981Z,2.14
2023-01-31T17:15:35.145Z,2.16
2023-01-31T17:18:41.615Z,2.13
2023-01-31T17:21:46.606Z,2.05
2023-01-31T17:24:51.151Z,2.15
2023-01-31T17:27:56.757Z,2.08
2023-01-31T17:31:03.370Z,2.02
2023-01-31T17:34:13.895Z,2.07
2023-01-31T17:37:20.851Z,2.12
2023-01-31T17:40:27.479Z,2.11
2023-01-31T17:43:32.150Z,2.10
2023-01-31T17:46:36.261Z,2.06
2023-01-31T17:49:39.690Z,2.05
2023-01-31T17:52:42.587Z,2.08
2023-01-31T17:55:47.075Z,2.05
2023-01-31T17:58:51.034Z,2.01
2023-01-31T18:01:55.556Z,1.99
2023-01-31T18:04:58.373Z,1.89
2023-01-31T18:08:02.708Z,1.81
2023-01-31T18:11:11.762Z,1.78
2023-01-31T18:14:15.888Z,1.73
2023-01-31T18:17:20.754Z,1.74
2023-01-31T18:20:24.092Z,1.79
2023-01-31T18:23:30.111Z,1.58
2023-01-31T18:26:33.388Z,1.59
2023-01-31T18:29:39.866Z,1.66
2023-01-31T18:32:44.319Z,1.57
2023-01-31T18:35:59.527Z,1.51
2023-01-31T18:39:04.453Z,1.40
2023-01-31T18:42:11.076Z,1.46
2023-01-31T18:45:14.176Z,1.49
2023-01-31T18:48:18.539Z,1.45
2023-01-31T18:51:21.840Z,1.53
2023-01-31T18:54:27.305Z,1.54
2023-01-31T18:57:36.347Z,1.58
2023-01-31T19:00:39.167Z,1.57
2023-01-31T19:03:44.177Z,1.71
2023-01-31T19:06:47.340Z,1.66
2023-01-31T19:09:53.783Z,1.61
2023-01-31T19:12:57.265Z,1.64
2023-01-31T19:16:16.783Z,1.63
2023-01-31T19:19:21.808Z,1.61
2023-01-31T19:22:29.443Z,1.54
2023-01-31T19:25:33.153Z,1.51
2023-01-31T19:28:37.482Z,1.62
2023-01-31T19:31:40.723Z,1.54
2023-01-31T19:34:44.908Z,1.59
2023-01-31T19:37:52.625Z,1.60
2023-01-31T19:41:04.832Z,1.62
2023-01-31T19:44:07.687Z,1.56
2023-01-31T19:47:12.108Z,1.52
2023-01-31T19:50:15.555Z,1.69
2023-01-31T19:53:21.384Z,1.63
2023-01-31T19:56:26.082Z,1.66
2023-01-31T19:59:29.403Z,1.60
2023-01-31T20:02:34.358Z,1.62
2023-01-31T20:05:37.718Z,1.63
2023-01-31T20:08:42.134Z,1.69
2023-01-31T20:11:45.178Z,1.75
2023-01-31T20:14:49.857Z,1.74
2023-01-31T20:17:53.833Z,1.64
2023-01-31T20:21:00.157Z,1.73
2023-01-31T20:24:03.309Z,1.76
2023-01-31T20:27:07.357Z,1.78
2023-01-31T20:30:13.391Z,1.82
2023-01-31T20:33:17.217Z,1.79
2023-01-31T20:36:23.935Z,1.79
2023-01-31T20:39:26.953Z,1.80
2023-01-31T20:42:32.475Z,1.79
2023-01-31T20:45:35.587Z,1.83
2023-01-31T20:48:40.938Z,1.87
2023-01-31T20:51:45.679Z,1.89
2023-01-31T20:54:48.343Z,1.87
2023-01-31T20:57:52.732Z,1.76
2023-01-31T21:00:57.394Z,1.75
2023-01-31T21:04:01.312Z,1.80
2023-01-31T21:07:05.006Z,1.81
2023-01-31T21:10:08.924Z,1.78
2023-01-31T21:13:11.874Z,1.77
2023-01-31T21:16:18.728Z,1.77
2023-01-31T21:19:21.682Z,1.82
2023-01-31T21:22:28.112Z,1.90
2023-01-31T21:25:31.979Z,1.87
2023-01-31T21:28:35.570Z,1.85
2023-01-31T21:31:38.542Z,1.97
2023-01-31T21:34:41.685Z,1.91
2023-01-31T21:37:44.625Z,1.88
2023-01-31T21:40:49.751Z,1.83
2023-01-31T21:43:52.800Z,1.89
2023-01-31T21:46:57.754Z,1.90
2023-01-31T21:50:00.501Z,1.99
2023-01-31T21:53:05.407Z,1.93
2023-01-31T21:56:15.031Z,1.93
2023-01-31T21:59:17.711Z,1.93
2023-01-31T22:02:22.585Z,1.96
2023-01-31T22:05:25.431Z,1.84
2023-01-31T22:08:30.811Z,1.93
2023-01-31T22:11:37.657Z,1.81
2023-01-31T22:14:40.663Z,1.82
2023-01-31T22:17:44.492Z,1.84
2023-01-31T22:20:47.604Z,1.90
2023-01-31T22:23:53.824Z,1.87
2023-01-31T22:26:56.490Z,1.90
2023-01-31T22:30:13.934Z,1.92
2023-01-31T22:33:19.479Z,1.95
2023-01-31T22:36:24.306Z,1.94
2023-01-31T22:39:28.313Z,1.97
2023-01-31T22:42:31.136Z,2.06
2023-01-31T22:45:35.429Z,2.09
2023-01-31T22:48:38.332Z,2.11
2023-01-31T22:51:41.486Z,2.16
2023-01-31T22:54:45.024Z,2.21
2023-01-31T22:57:49.327Z,2.21
2023-01-31T23:00:53.678Z,2.23
2023-01-31T23:03:59.224Z,2.29
2023-01-31T23:07:01.991Z,2.34
2023-01-31T23:10:05.118Z,2.33
2023-01-31T23:13:10.881Z,2.36
2023-01-31T23:16:22.124Z,2.43
2023-01-31T23:19:25.246Z,2.44
2023-01-31T23:22:28.061Z,2.50
2023-01-31T23:25:31.940Z,2.49
2023-01-31T23:28:34.746Z,2.54
2023-01-31T23:31:37.894Z,2.53
2023-01-31T23:34:40.699Z,2.58
2023-01-31T23:37:43.469Z,2.56
2023-01-31T23:40:53.380Z,2.57
2023-01-31T23:43:56.425Z,2.54
2023-01-31T23:46:58.974Z,2.61
2023-01-31T23:50:01.989Z,2.51
2023-01-31T23:53:04.745Z,2.58
2023-01-31T23:56:07.663Z,2.61
2023-01-31T23:59:10.609Z,2.63
